Time;durP1;ratioP1;P1;durP2;ratioP2;P2;SDS_P1;SDS_P2;PMS_P1;PMS_P2;Temp;Humidity;BMP_temperature;BMP_pressure;BME280_temperature;BME280_humidity;BME280_pressure;Samples;Min_cycle;Max_cycle;Signal;HPM_P1;HPM_P2
2023/06/09 00:01:18;;;;;;;13.60;6.47;;;15.30;1.00;;;;;;4970653;28;20729;-77
2023/06/09 00:03:46;;;;;;;13.30;6.80;;;15.20;1.00;;;;;;4970810;28;20916;-78
2023/06/09 00:06:12;;;;;;;12.77;7.05;;;15.20;1.00;;;;;;4969712;28;20905;-78
2023/06/09 00:08:38;;;;;;;12.32;6.70;;;15.00;1.00;;;;;;4970557;28;20737;-78
2023/06/09 00:11:04;;;;;;;13.68;6.63;;;15.10;1.00;;;;;;4970015;28;20428;-78
2023/06/09 00:13:29;;;;;;;17.87;7.70;;;15.00;1.00;;;;;;4970212;28;20884;-76
2023/06/09 00:15:55;;;;;;;12.00;6.67;;;15.00;1.00;;;;;;4969834;28;20396;-76
2023/06/09 00:18:24;;;;;;;14.15;7.10;;;14.90;1.00;;;;;;4969499;28;20397;-76
2023/06/09 00:20:50;;;;;;;14.40;7.03;;;14.90;1.00;;;;;;4970005;28;20399;-76
2023/06/09 00:23:16;;;;;;;13.05;7.80;;;14.80;1.00;;;;;;4970172;28;20426;-76
2023/06/09 00:25:41;;;;;;;15.02;7.15;;;14.80;1.00;;;;;;4970025;28;20400;-76
2023/06/09 00:28:09;;;;;;;16.17;8.00;;;14.80;1.00;;;;;;4970226;28;20861;-76
2023/06/09 00:30:35;;;;;;;13.83;7.30;;;14.70;1.00;;;;;;4969697;28;20416;-76
2023/06/09 00:33:00;;;;;;;13.80;7.10;;;14.80;1.00;;;;;;4969318;28;20765;-76
2023/06/09 00:35:26;;;;;;;14.32;7.40;;;14.80;1.00;;;;;;4969500;28;20399;-76
2023/06/09 00:37:52;;;;;;;15.63;7.17;;;;;;;;;;4969689;28;20463;-76
2023/06/09 00:40:20;;;;;;;15.32;7.97;;;;;;;;;;4970444;28;20896;-76
2023/06/09 00:42:46;;;;;;;16.67;8.38;;;;;;;;;;4970213;28;20447;-77
2023/06/09 00:45:14;;;;;;;14.85;6.70;;;;;;;;;;4970056;28;20797;-77
2023/06/09 00:47:40;;;;;;;15.73;7.88;;;;;;;;;;4969810;28;20403;-77
2023/06/09 00:50:06;;;;;;;16.83;7.53;;;;;;;;;;4969868;28;20432;-77
2023/06/09 00:52:32;;;;;;;13.68;7.30;;;;;;;;;;4970614;28;20388;-77
2023/06/09 00:54:59;;;;;;;14.65;7.30;;;;;;;;;;4971037;28;20412;-77
2023/06/09 00:57:25;;;;;;;16.33;7.50;;;;;;;;;;4972651;28;20454;-77
2023/06/09 00:59:51;;;;;;;15.05;7.90;;;;;;;;;;4975023;28;20435;-77
2023/06/09 01:02:17;;;;;;;14.30;7.35;;;;;;;;;;4974188;28;20404;-77
2023/06/09 01:04:49;;;;;;;18.50;7.28;;;;;;;;;;4971246;28;20515;-77
2023/06/09 01:07:32;;;;;;;14.60;7.22;;;;;;;;;;4970708;28;20400;-76
2023/06/09 01:10:04;;;;;;;17.00;7.60;;;;;;;;;;4969246;28;21161;-76
2023/06/09 01:12:30;;;;;;;16.02;7.25;;;;;;;;;;4969735;28;20396;-76
2023/06/09 01:15:03;;;;;;;14.23;7.28;;;;;;;;;;4969655;28;20388;-76
2023/06/09 01:17:32;;;;;;;16.77;7.60;;;;;;;;;;4969552;28;20444;-76
2023/06/09 01:20:05;;;;;;;13.32;6.90;;;;;;;;;;4969197;28;20431;-76
2023/06/09 01:22:38;;;;;;;14.73;7.63;;;;;;;;;;4969746;28;20776;-76
2023/06/09 01:25:07;;;;;;;14.98;7.47;;;;;;;;;;4970409;28;20435;-76
2023/06/09 01:27:36;;;;;;;18.33;7.22;;;;;;;;;;4970156;28;20391;-76
2023/06/09 01:30:02;;;;;;;15.63;7.20;;;;;;;;;;4969209;28;20781;-76
2023/06/09 01:32:28;;;;;;;12.90;6.95;;;;;;;;;;4969253;28;20760;-76
2023/06/09 01:34:54;;;;;;;14.82;8.00;;;;;;;;;;4968815;28;20408;-76
2023/06/09 01:37:20;;;;;;;13.93;6.97;;;;;;;;;;4969543;28;20391;-77
2023/06/09 01:39:47;;;;;;;14.63;7.93;;;;;;;;;;4969586;28;20439;-76
2023/06/09 01:42:13;;;;;;;13.23;7.13;;;;;;;;;;4969477;28;20396;-76
2023/06/09 01:44:39;;;;;;;16.13;7.38;;;;;;;;;;4969569;28;20741;-76
2023/06/09 01:47:05;;;;;;;16.60;7.55;;;;;;;;;;4969134;28;20404;-76
2023/06/09 01:49:35;;;;;;;14.27;7.60;;;;;;;;;;4968840;28;20400;-76
2023/06/09 01:52:15;;;;;;;14.00;7.80;;;;;;;;;;4969188;28;20400;-76
2023/06/09 01:54:44;;;;;;;14.45;7.20;;;;;;;;;;4969042;28;20388;-77
2023/06/09 01:57:20;;;;;;;15.25;7.50;;;;;;;;;;4969822;28;20805;-78
2023/06/09 01:59:58;;;;;;;15.48;8.35;;;;;;;;;;4970141;28;20388;-78
2023/06/09 02:02:26;;;;;;;15.70;8.10;;;;;;;;;;4969918;28;20398;-78
2023/06/09 02:04:53;;;;;;;15.45;8.25;;;;;;;;;;4969683;28;20920;-78
2023/06/09 02:07:21;;;;;;;17.20;8.18;;;;;;;;;;4969323;28;20407;-78
2023/06/09 02:09:47;;;;;;;19.83;9.00;;;;;;;;;;4969303;28;20996;-78
2023/06/09 02:12:14;;;;;;;16.67;8.68;;;;;;;;;;4968672;28;20392;-78
2023/06/09 02:14:41;;;;;;;16.02;8.57;;;;;;;;;;4968716;28;20396;-79
2023/06/09 02:17:08;;;;;;;16.50;8.30;;;;;;;;;;4968778;28;20842;-79
2023/06/09 02:19:37;;;;;;;18.00;8.30;;;;;;;;;;4969117;28;20407;-78
2023/06/09 02:22:03;;;;;;;17.70;8.88;;;;;;;;;;4969252;28;20534;-79
2023/06/09 02:24:29;;;;;;;13.77;7.10;;;;;;;;;;4969319;28;20794;-79
2023/06/09 02:26:56;;;;;;;13.98;7.45;;;;;;;;;;4968970;28;20400;-79
2023/06/09 02:29:23;;;;;;;14.73;7.85;;;;;;;;;;4968889;28;20483;-79
2023/06/09 02:31:49;;;;;;;15.45;7.80;;;;;;;;;;4968275;28;20716;-79
2023/06/09 02:34:15;;;;;;;16.92;8.38;;;;;;;;;;4968833;28;20399;-78
2023/06/09 02:36:42;;;;;;;13.82;7.45;;;;;;;;;;4968745;28;20398;-78
2023/06/09 02:39:08;;;;;;;14.90;8.47;;;;;;;;;;4968287;28;21098;-78
2023/06/09 02:41:34;;;;;;;17.53;8.30;;;;;;;;;;4968552;28;20742;-78
2023/06/09 02:44:02;;;;;;;15.13;8.00;;;;;;;;;;4971520;28;20424;-78
2023/06/09 02:46:29;;;;;;;12.95;7.93;;;;;;;;;;4971588;28;20498;-78
2023/06/09 02:48:55;;;;;;;15.00;7.93;;;;;;;;;;4971734;28;20388;-78
2023/06/09 02:51:21;;;;;;;14.80;7.65;;;;;;;;;;4971581;28;20427;-78
2023/06/09 02:53:47;;;;;;;13.70;7.40;;;;;;;;;;4972299;28;20392;-78
2023/06/09 02:56:13;;;;;;;20.02;9.40;;;;;;;;;;4971864;28;20469;-78
2023/06/09 02:58:39;;;;;;;14.38;7.95;;;;;;;;;;4972702;28;20948;-78
2023/06/09 03:01:07;;;;;;;16.25;8.90;;;;;;;;;;4972417;28;20392;-78
2023/06/09 03:03:34;;;;;;;15.73;8.10;;;;;;;;;;4971109;28;20427;-78
2023/06/09 03:06:00;;;;;;;18.57;8.50;;;;;;;;;;4971703;28;20396;-78
2023/06/09 03:08:26;;;;;;;16.17;7.75;;;;;;;;;;4971246;28;20750;-78
2023/06/09 03:10:53;;;;;;;15.23;7.72;;;;;;;;;;4969552;28;20439;-78
2023/06/09 03:13:19;;;;;;;16.98;8.35;;;;;;;;;;4972213;28;20384;-78
2023/06/09 03:15:45;;;;;;;14.63;7.80;;;;;;;;;;4971211;28;20475;-78
2023/06/09 03:18:11;;;;;;;14.65;7.45;;;;;;;;;;4971390;28;20400;-78
2023/06/09 03:20:36;;;;;;;14.45;8.20;;;;;;;;;;4971356;28;20441;-78
2023/06/09 03:23:03;;;;;;;14.68;8.20;;;;;;;;;;4971126;28;20431;-78
2023/06/09 03:25:31;;;;;;;17.15;8.82;;;;;;;;;;4971406;28;20404;-78
2023/06/09 03:27:57;;;;;;;14.73;8.40;;;;;;;;;;4971177;28;20403;-78
2023/06/09 03:30:22;;;;;;;16.55;8.80;;;;;;;;;;4970655;28;20435;-78
2023/06/09 03:32:48;;;;;;;14.52;7.80;;;;;;;;;;4971465;28;20423;-78
2023/06/09 03:35:15;;;;;;;15.50;8.60;;;;;;;;;;4971295;28;20808;-78
2023/06/09 03:37:41;;;;;;;15.52;8.25;;;;;;;;;;4970710;28;20400;-78
2023/06/09 03:40:07;;;;;;;18.20;9.53;;;;;;;;;;4970852;28;20438;-78
2023/06/09 03:42:33;;;;;;;15.57;8.43;;;;;;;;;;4970646;28;20442;-78
2023/06/09 03:44:59;;;;;;;16.10;8.88;;;;;;;;;;4970375;28;20483;-78
2023/06/09 03:47:26;;;;;;;17.33;8.55;;;;;;;;;;4970541;28;20412;-78
2023/06/09 03:49:52;;;;;;;13.98;7.63;;;;;;;;;;4970887;28;20424;-78
2023/06/09 03:52:19;;;;;;;13.30;7.57;;;;;;;;;;4971217;28;20756;-78
2023/06/09 03:54:45;;;;;;;16.02;8.40;;;;;;;;;;4970668;28;20392;-78
2023/06/09 03:57:11;;;;;;;15.27;9.10;;;;;;;;;;4970413;28;20892;-78
2023/06/09 03:59:37;;;;;;;15.50;8.48;;;;;;;;;;4970215;28;20396;-78
2023/06/09 04:02:03;;;;;;;19.33;9.37;;;;;;;;;;4970647;28;20392;-78
2023/06/09 04:04:29;;;;;;;14.60;7.78;;;;;;;;;;4971932;28;20482;-78
2023/06/09 04:06:56;;;;;;;14.07;8.20;;;;;;;;;;4972610;28;20431;-78
2023/06/09 04:09:22;;;;;;;15.57;8.52;;;;;;;;;;4970460;28;20402;-76
2023/06/09 04:11:48;;;;;;;15.07;8.80;;;;;;;;;;4970487;28;20396;-76
2023/06/09 04:14:14;;;;;;;16.45;8.35;;;;;;;;;;4970145;28;20773;-76
2023/06/09 04:16:41;;;;;;;16.30;8.53;;;;;;;;;;4969803;28;20878;-76
2023/06/09 04:19:08;;;;;;;16.10;9.18;;;;;;;;;;4970154;28;20396;-76
2023/06/09 04:21:35;;;;;;;17.92;9.30;;;;;;;;;;4970089;28;20436;-76
2023/06/09 04:24:01;;;;;;;15.68;9.07;;;;;;;;;;4970075;28;20424;-76
2023/06/09 04:26:27;;;;;;;14.57;8.32;;;;;;;;;;4970094;28;20809;-76
2023/06/09 04:28:54;;;;;;;15.75;8.35;;;;;;;;;;4970465;28;20967;-76
2023/06/09 04:31:23;;;;;;;14.98;8.65;;;;;;;;;;4969796;28;20514;-76
2023/06/09 04:33:49;;;;;;;20.98;8.32;;;;;;;;;;4970902;28;20945;-76
2023/06/09 04:36:16;;;;;;;16.02;8.32;;;;;;;;;;4969878;28;20885;-76
2023/06/09 04:38:45;;;;;;;14.75;8.30;;;;;;;;;;4970971;28;20396;-76
2023/06/09 04:41:11;;;;;;;14.25;8.07;;;;;;;;;;4970286;28;20406;-76
2023/06/09 04:43:39;;;;;;;16.20;9.40;;;;;;;;;;4969435;28;20412;-77
2023/06/09 04:46:05;;;;;;;17.20;8.73;;;;;;;;;;4969244;28;20412;-78
2023/06/09 04:48:34;;;;;;;16.48;8.70;;;;;;;;;;4970288;28;20443;-78
2023/06/09 04:51:01;;;;;;;19.63;9.65;;;;;;;;;;4970085;28;20435;-78
2023/06/09 04:53:27;;;;;;;18.30;10.75;;;;;;;;;;4969840;28;20388;-79
2023/06/09 04:55:53;;;;;;;17.33;9.63;;;;;;;;;;4969447;28;20443;-79
2023/06/09 04:58:19;;;;;;;14.60;9.30;;;;;;;;;;4969592;28;20400;-79
2023/06/09 05:00:45;;;;;;;17.15;8.18;;;;;;;;;;4970071;28;20415;-77
2023/06/09 05:03:13;;;;;;;14.38;8.43;;;;;;;;;;4969654;28;20397;-79
2023/06/09 05:05:40;;;;;;;13.63;7.90;;;;;;;;;;4969674;28;20499;-79
2023/06/09 05:08:06;;;;;;;13.57;7.32;;;;;;;;;;4969945;28;20399;-79
2023/06/09 05:10:31;;;;;;;13.33;7.70;;;;;;;;;;4970529;28;20424;-79
2023/06/09 05:12:57;;;;;;;12.80;7.68;;;;;;;;;;4971004;28;20384;-79
2023/06/09 05:15:23;;;;;;;14.13;7.40;;;;;;;;;;4970682;28;20746;-79
2023/06/09 05:17:50;;;;;;;13.83;8.10;;;;;;;;;;4970183;28;20380;-79
2023/06/09 05:20:16;;;;;;;14.05;7.47;;;;;;;;;;4973178;28;20380;-77
2023/06/09 05:22:42;;;;;;;15.02;7.95;;;;;;;;;;4972456;28;20392;-77
2023/06/09 05:25:09;;;;;;;14.77;8.10;;;;;;;;;;4970069;28;20727;-77
2023/06/09 05:27:35;;;;;;;13.50;7.73;;;;;;;;;;4967991;28;20396;-76
2023/06/09 05:30:01;;;;;;;14.38;8.43;;;;;;;;;;4969096;28;20446;-76
2023/06/09 05:32:27;;;;;;;15.73;8.73;;;;;;;;;;4969316;28;20393;-76
2023/06/09 05:34:53;;;;;;;12.35;7.30;;;;;;;;;;4968945;28;20423;-76
2023/06/09 05:37:18;;;;;;;13.82;8.25;;;27.30;99.90;;;;;;4969113;28;20977;-76
2023/06/09 05:39:44;;;;;;;12.57;7.80;;;27.50;42.80;;;;;;4966185;28;20439;-76
2023/06/09 05:42:10;;;;;;;13.20;8.18;;;27.50;19.30;;;;;;4968662;28;20786;-76
2023/06/09 05:44:37;;;;;;;13.20;7.65;;;27.40;11.10;;;;;;4968224;28;20428;-76
2023/06/09 05:47:02;;;;;;;13.30;7.80;;;27.50;43.40;;;;;;4968641;28;20403;-77
2023/06/09 05:49:28;;;;;;;13.68;8.40;;;27.90;23.20;;;;;;4968749;28;20412;-77
2023/06/09 05:51:53;;;;;;;14.60;8.10;;;28.30;1.00;;;;;;4966417;28;20456;-77
2023/06/09 05:54:20;;;;;;;14.57;8.00;;;28.70;1.00;;;;;;4967227;28;20451;-78
2023/06/09 05:56:48;;;;;;;14.07;7.97;;;29.10;1.00;;;;;;4969600;28;20388;-78
2023/06/09 05:59:14;;;;;;;13.60;7.80;;;29.60;49.10;;;;;;4969624;28;20875;-78
2023/06/09 06:01:39;;;;;;;14.37;7.37;;;29.60;48.70;;;;;;4969471;28;20396;-78
2023/06/09 06:04:05;;;;;;;14.00;8.10;;;29.70;50.40;;;;;;4967314;28;20928;-78
2023/06/09 06:06:31;;;;;;;12.65;7.45;;;29.80;46.00;;;;;;4968308;28;20419;-78
2023/06/09 06:08:57;;;;;;;14.15;8.40;;;29.70;75.30;;;;;;4968709;28;20524;-77
2023/06/09 06:11:23;;;;;;;13.18;7.30;;;29.30;80.10;;;;;;4966670;28;20575;-78
2023/06/09 06:13:48;;;;;;;13.45;7.78;;;29.30;83.10;;;;;;4969987;28;20475;-77
2023/06/09 06:16:14;;;;;;;13.82;7.40;;;29.50;92.00;;;;;;4968040;28;20501;-77
2023/06/09 06:18:40;;;;;;;11.80;6.93;;;29.70;93.60;;;;;;4973562;28;20391;-77
2023/06/09 06:21:05;;;;;;;12.73;7.90;;;29.80;65.80;;;;;;4973501;28;20388;-77
2023/06/09 06:23:32;;;;;;;11.93;7.20;;;30.00;47.00;;;;;;4973813;28;20431;-78
2023/06/09 06:25:58;;;;;;;12.23;6.90;;;;;;;;;;4974319;28;20408;-77
2023/06/09 06:28:24;;;;;;;13.80;7.93;;;;;;;;;;4973769;28;20766;-78
2023/06/09 06:30:50;;;;;;;12.38;7.82;;;;;;;;;;4973734;28;20427;-78
2023/06/09 06:33:16;;;;;;;13.05;7.60;;;;;;;;;;4975010;28;20471;-78
2023/06/09 06:35:42;;;;;;;14.13;7.60;;;;;;;;;;4973488;28;20396;-78
2023/06/09 06:38:08;;;;;;;12.00;7.53;;;31.00;99.90;;;;;;4972956;28;20475;-78
2023/06/09 06:40:33;;;;;;;13.40;7.60;;;31.70;99.90;;;;;;4973632;28;20397;-78
2023/06/09 06:42:59;;;;;;;12.35;8.00;;;31.80;99.90;;;;;;4972822;28;20403;-78
2023/06/09 06:45:28;;;;;;;12.23;7.50;;;32.10;99.90;;;;;;4973637;28;20407;-78
2023/06/09 06:47:54;;;;;;;12.40;7.70;;;32.10;99.90;;;;;;4973856;28;20403;-78
2023/06/09 06:50:20;;;;;;;10.93;6.80;;;31.60;99.90;;;;;;4973308;28;20416;-78
2023/06/09 06:52:48;;;;;;;12.63;7.30;;;32.20;99.90;;;;;;4971074;28;20401;-78
2023/06/09 06:55:13;;;;;;;13.90;8.20;;;32.40;99.90;;;;;;4969526;28;20435;-78
2023/06/09 06:57:39;;;;;;;13.23;7.40;;;32.80;99.90;;;;;;4967489;28;20459;-78
2023/06/09 07:00:14;;;;;;;11.67;6.87;;;32.50;99.90;;;;;;4972040;28;20396;-78
2023/06/09 07:02:46;;;;;;;11.20;6.30;;;32.00;99.90;;;;;;4971517;28;20455;-78
2023/06/09 07:05:12;;;;;;;10.40;6.27;;;31.70;99.90;;;;;;4964072;28;20418;-78
2023/06/09 07:07:37;;;;;;;10.50;5.90;;;32.40;99.90;;;;;;4967183;28;20470;-78
2023/06/09 07:10:04;;;;;;;10.40;6.13;;;32.40;99.90;;;;;;4959770;28;20423;-78
2023/06/09 07:12:29;;;;;;;10.93;6.32;;;32.10;99.90;;;;;;4960152;28;20483;-78
2023/06/09 07:14:58;;;;;;;11.83;5.70;;;32.20;99.90;;;;;;4963138;28;20988;-78
2023/06/09 07:17:23;;;;;;;10.68;5.78;;;32.50;99.90;;;;;;4969830;28;20535;-78
2023/06/09 07:19:49;;;;;;;10.73;5.60;;;32.30;99.90;;;;;;4972940;28;21745;-79
2023/06/09 07:22:15;;;;;;;9.90;5.50;;;31.80;99.90;;;;;;4977663;28;20409;-79
2023/06/09 07:24:41;;;;;;;9.65;5.18;;;32.00;99.90;;;;;;4980785;28;20440;-79
2023/06/09 07:27:07;;;;;;;9.57;5.03;;;32.20;99.90;;;;;;4981333;28;20418;-78
2023/06/09 07:29:34;;;;;;;9.57;5.22;;;32.30;99.90;;;;;;4979180;28;20491;-78
2023/06/09 07:32:03;;;;;;;10.80;5.50;;;32.70;99.90;;;;;;4982441;28;20416;-78
2023/06/09 07:34:31;;;;;;;8.73;4.60;;;33.10;99.90;;;;;;4982406;28;20408;-78
2023/06/09 07:36:59;;;;;;;9.57;5.38;;;33.20;99.90;;;;;;4978452;28;20411;-78
2023/06/09 07:39:25;;;;;;;9.90;5.60;;;33.60;99.90;;;;;;4973081;28;20404;-78
2023/06/09 07:41:50;;;;;;;10.00;5.30;;;33.80;99.90;;;;;;4972814;28;20510;-78
2023/06/09 07:44:16;;;;;;;10.67;5.57;;;34.30;99.90;;;;;;4978499;28;20393;-79
2023/06/09 07:46:41;;;;;;;12.48;5.82;;;34.40;99.90;;;;;;4983112;28;20451;-79
2023/06/09 07:49:07;;;;;;;9.90;5.20;;;33.70;99.90;;;;;;4987746;28;20392;-79
2023/06/09 07:51:36;;;;;;;8.97;5.20;;;33.70;99.90;;;;;;4981428;28;20430;-79
2023/06/09 07:54:06;;;;;;;8.80;4.60;;;33.80;99.90;;;;;;4994037;28;20398;-79
2023/06/09 07:56:32;;;;;;;8.82;4.53;;;34.30;99.90;;;;;;4973657;28;20417;-79
2023/06/09 07:58:58;;;;;;;10.25;5.00;;;34.20;99.90;;;;;;4983273;28;20467;-79
2023/06/09 08:01:24;;;;;;;9.90;4.97;;;34.60;99.90;;;;;;4976691;28;20431;-80
2023/06/09 08:03:50;;;;;;;10.63;5.13;;;34.30;99.90;;;;;;4980114;28;20521;-79
2023/06/09 08:06:16;;;;;;;9.67;5.10;;;34.10;99.90;;;;;;4969352;28;20467;-79
2023/06/09 08:08:42;;;;;;;10.20;5.30;;;34.50;99.90;;;;;;4959748;28;20412;-79
2023/06/09 08:11:07;;;;;;;9.60;4.87;;;34.90;99.90;;;;;;4963876;28;20422;-79
2023/06/09 08:13:33;;;;;;;8.37;4.80;;;35.40;99.90;;;;;;4970178;28;20476;-79
2023/06/09 08:15:59;;;;;;;9.65;5.18;;;35.50;99.90;;;;;;4959188;28;20412;-79
2023/06/09 08:18:26;;;;;;;8.75;4.85;;;35.50;99.90;;;;;;4967868;28;20846;-79
2023/06/09 08:20:52;;;;;;;10.90;5.50;;;35.40;99.90;;;;;;4958452;28;20416;-79
2023/06/09 08:23:20;;;;;;;8.93;4.72;;;34.60;99.90;;;;;;4962347;28;20447;-79
2023/06/09 08:25:47;;;;;;;10.55;5.05;;;34.30;99.90;;;;;;4963280;28;21035;-79
2023/06/09 08:28:13;;;;;;;10.80;5.40;;;33.60;99.90;;;;;;4957436;28;20411;-79
2023/06/09 08:30:39;;;;;;;11.70;5.10;;;33.30;99.90;;;;;;4953715;28;20512;-79
2023/06/09 08:33:05;;;;;;;9.90;5.10;;;33.30;99.90;;;;;;4959695;28;20409;-79
2023/06/09 08:35:32;;;;;;;11.13;4.72;;;33.60;99.90;;;;;;4953430;28;20428;-79
2023/06/09 08:37:58;;;;;;;12.00;5.35;;;34.10;99.90;;;;;;4965094;28;20425;-79
2023/06/09 08:40:24;;;;;;;10.77;4.90;;;34.10;99.90;;;;;;4960908;28;20833;-79
2023/06/09 08:42:54;;;;;;;10.10;4.70;;;34.40;99.90;;;;;;4958248;28;20416;-79
2023/06/09 08:45:21;;;;;;;9.97;4.67;;;34.90;99.90;;;;;;4966265;28;20877;-80
2023/06/09 08:47:47;;;;;;;10.50;5.50;;;35.00;99.90;;;;;;4960483;28;20406;-79
2023/06/09 08:50:13;;;;;;;10.38;5.43;;;35.60;99.90;;;;;;4958309;28;20446;-79
2023/06/09 08:52:39;;;;;;;11.80;7.30;;;35.60;99.90;;;;;;4956648;28;20510;-79
2023/06/09 08:55:08;;;;;;;12.67;6.27;;;35.50;99.90;;;;;;4965395;28;20418;-79
2023/06/09 08:57:34;;;;;;;10.20;5.45;;;35.20;99.90;;;;;;4959101;28;20464;-79
2023/06/09 09:00:04;;;;;;;9.43;4.82;;;35.40;99.90;;;;;;4957152;28;20460;-79
2023/06/09 09:02:30;;;;;;;9.43;5.10;;;35.40;99.90;;;;;;4960647;28;20512;-79
2023/06/09 09:05:00;;;;;;;12.53;4.63;;;36.00;99.90;;;;;;4969568;28;20419;-79
2023/06/09 09:07:26;;;;;;;10.10;5.22;;;36.00;99.90;;;;;;4968993;28;20958;-79
2023/06/09 09:09:52;;;;;;;10.10;5.27;;;36.30;99.90;;;;;;4969638;28;20438;-79
2023/06/09 09:12:17;;;;;;;8.85;4.78;;;36.40;99.90;;;;;;4974055;28;20502;-77
2023/06/09 09:14:44;;;;;;;9.55;4.43;;;37.40;99.90;;;;;;4978011;28;20416;-80
2023/06/09 09:17:14;;;;;;;13.00;8.13;;;36.40;99.90;;;;;;4985494;28;20408;-80
2023/06/09 09:19:51;;;;;;;9.40;4.90;;;36.40;99.90;;;;;;4980632;28;20428;-80
2023/06/09 09:22:17;;;;;;;11.82;6.70;;;36.10;99.90;;;;;;4965283;28;20426;-79
2023/06/09 09:24:47;;;;;;;9.30;4.50;;;36.60;99.90;;;;;;4962706;28;20445;-79
2023/06/09 09:27:17;;;;;;;9.10;4.60;;;36.70;99.90;;;;;;4970370;28;20924;-78
2023/06/09 09:29:43;;;;;;;9.10;4.77;;;37.30;99.90;;;;;;4955023;28;20917;-78
2023/06/09 09:32:09;;;;;;;8.80;4.57;;;37.00;99.90;;;;;;4967235;28;20424;-79
2023/06/09 09:34:35;;;;;;;7.50;3.70;;;36.30;99.90;;;;;;4968843;28;20409;-80
2023/06/09 09:37:07;;;;;;;6.50;3.00;;;36.00;99.90;;;;;;4980188;28;20419;-80
2023/06/09 09:39:32;;;;;;;8.20;3.23;;;36.00;99.90;;;;;;4974438;28;20432;-80
2023/06/09 09:42:17;;;;;;;7.93;3.60;;;36.60;99.90;;;;;;4985486;28;20400;-80
2023/06/09 09:44:46;;;;;;;7.50;3.42;;;36.80;99.90;;;;;;4977138;28;20475;-80
2023/06/09 09:47:14;;;;;;;8.00;3.78;;;36.40;99.90;;;;;;4988081;28;20411;-80
2023/06/09 09:50:00;;;;;;;7.73;3.47;;;35.40;99.90;;;;;;4987899;28;20396;-80
2023/06/09 09:52:28;;;;;;;8.40;3.70;;;35.40;99.90;;;;;;4981673;28;20423;-80
2023/06/09 09:54:55;;;;;;;8.60;3.35;;;35.80;99.90;;;;;;4981303;28;20400;-80
2023/06/09 09:57:23;;;;;;;7.18;3.28;;;36.10;99.90;;;;;;4979884;28;20485;-80
2023/06/09 09:59:51;;;;;;;7.30;3.22;;;35.60;99.90;;;;;;4981061;28;20412;-79
2023/06/09 10:02:23;;;;;;;8.00;3.70;;;35.40;99.90;;;;;;4984018;28;20412;-79
2023/06/09 10:04:50;;;;;;;7.10;3.00;;;34.90;99.90;;;;;;4978799;28;20459;-79
2023/06/09 10:07:21;;;;;;;7.63;3.35;;;35.50;99.90;;;;;;4975964;28;20474;-79
2023/06/09 10:09:49;;;;;;;8.07;3.60;;;35.80;99.90;;;;;;4973068;28;20427;-79
2023/06/09 10:12:17;;;;;;;8.30;3.95;;;35.60;99.90;;;;;;4971432;28;20431;-79
2023/06/09 10:14:43;;;;;;;10.35;4.40;;;36.10;99.90;;;;;;4973705;28;20411;-79
2023/06/09 10:17:10;;;;;;;11.45;4.40;;;36.10;99.90;;;;;;4974484;28;20414;-79
2023/06/09 10:19:36;;;;;;;7.97;3.90;;;36.30;99.90;;;;;;4973846;28;20412;-79
2023/06/09 10:22:02;;;;;;;7.97;3.70;;;35.70;99.90;;;;;;4973924;28;20399;-79
2023/06/09 10:24:28;;;;;;;7.90;3.67;;;35.00;99.90;;;;;;4974643;28;20432;-79
2023/06/09 10:26:55;;;;;;;9.32;3.75;;;34.40;99.90;;;;;;4973220;28;20403;-79
2023/06/09 10:29:21;;;;;;;8.45;3.78;;;33.70;99.90;;;;;;4973064;28;20848;-78
2023/06/09 10:31:48;;;;;;;10.10;4.90;;;33.40;99.90;;;;;;4972541;28;20900;-77
2023/06/09 10:34:15;;;;;;;10.52;5.05;;;32.70;99.90;;;;;;4972026;28;20392;-77
2023/06/09 10:36:41;;;;;;;7.88;3.58;;;32.20;99.90;;;;;;4971796;28;20439;-77
2023/06/09 10:39:20;;;;;;;9.15;3.38;;;31.90;99.90;;;;;;4972299;28;20430;-79
2023/06/09 10:42:13;;;;;;;7.60;3.47;;;31.30;99.90;;;;;;4973555;28;20400;-80
2023/06/09 10:44:55;;;;;;;7.90;3.90;;;31.20;99.90;;;;;;4972059;28;20403;-79
2023/06/09 10:47:41;;;;;;;7.90;3.60;;;31.00;99.90;;;;;;4952198;28;20760;-79
2023/06/09 10:50:20;;;;;;;7.88;3.83;;;29.80;99.90;;;;;;4968575;28;20902;-79
2023/06/09 10:52:52;;;;;;;7.97;3.50;;;29.60;99.90;;;;;;4972296;28;20396;-79
2023/06/09 10:55:21;;;;;;;8.82;3.10;;;29.40;99.90;;;;;;4972050;28;20947;-79
2023/06/09 10:57:47;;;;;;;8.90;3.60;;;29.00;99.90;;;;;;4974353;28;20474;-79
2023/06/09 11:00:14;;;;;;;7.47;3.40;;;29.30;99.90;;;;;;4973495;28;20969;-79
2023/06/09 11:02:40;;;;;;;7.88;3.72;;;29.60;99.90;;;;;;4972633;28;20396;-79
2023/06/09 11:05:06;;;;;;;7.85;3.70;;;29.90;99.90;;;;;;4974075;28;20430;-79
2023/06/09 11:07:40;;;;;;;8.90;3.70;;;30.00;99.90;;;;;;4980085;28;20464;-79
2023/06/09 11:10:05;;;;;;;7.20;3.23;;;29.80;99.90;;;;;;4977480;28;20428;-80
2023/06/09 11:12:37;;;;;;;7.57;3.30;;;29.60;99.90;;;;;;4977746;28;20389;-79
2023/06/09 11:15:07;;;;;;;8.73;3.65;;;29.50;99.90;;;;;;4962509;29;20422;-80
2023/06/09 11:17:33;;;;;;;8.30;3.65;;;29.20;99.90;;;;;;4953133;29;20429;-80
2023/06/09 11:20:20;;;;;;;8.52;3.90;;;29.10;99.90;;;;;;4954885;28;20493;-80
2023/06/09 11:22:48;;;;;;;8.00;3.40;;;29.60;99.90;;;;;;4954935;28;20797;-80
2023/06/09 11:25:17;;;;;;;7.35;3.10;;;29.80;99.90;;;;;;4956312;28;20405;-80
2023/06/09 11:27:44;;;;;;;7.63;3.10;;;30.00;99.90;;;;;;4953869;29;20469;-80
2023/06/09 11:30:14;;;;;;;7.60;2.95;;;30.10;99.90;;;;;;4937624;29;20461;-80
2023/06/09 11:32:47;;;;;;;8.10;3.40;;;30.10;99.90;;;;;;4955268;28;20394;-80
2023/06/09 11:35:28;;;;;;;8.00;3.30;;;30.10;99.90;;;;;;4954972;28;20413;-80
2023/06/09 11:37:58;;;;;;;8.33;3.23;;;30.30;99.90;;;;;;4955467;28;20739;-80
2023/06/09 11:40:25;;;;;;;7.63;3.07;;;30.30;99.90;;;;;;4955285;28;20428;-80
2023/06/09 11:42:54;;;;;;;6.85;3.10;;;30.40;99.90;;;;;;4954654;28;20409;-80
2023/06/09 11:45:23;;;;;;;8.10;3.50;;;30.30;99.90;;;;;;4964371;28;20406;-80
2023/06/09 11:47:49;;;;;;;8.05;3.60;;;30.00;99.90;;;;;;4958393;29;20426;-80
2023/06/09 11:50:16;;;;;;;7.85;3.65;;;29.50;99.90;;;;;;4956887;28;20941;-80
2023/06/09 11:52:42;;;;;;;7.47;3.30;;;29.10;99.90;;;;;;4956307;28;20402;-80
2023/06/09 11:55:09;;;;;;;8.15;3.38;;;29.00;99.90;;;;;;4954375;29;20895;-80
2023/06/09 11:57:36;;;;;;;7.15;2.83;;;29.00;99.90;;;;;;4969713;28;20407;-80
2023/06/09 12:00:19;;;;;;;7.40;3.58;;;28.90;99.90;;;;;;4974558;28;20420;-80
2023/06/09 12:02:48;;;;;;;7.43;3.00;;;29.10;99.90;;;;;;4975308;28;20443;-80
2023/06/09 12:05:14;;;;;;;7.40;2.90;;;29.40;99.90;;;;;;4974949;28;20476;-80
2023/06/09 12:07:47;;;;;;;7.37;3.13;;;29.90;99.90;;;;;;4973060;28;20392;-80
2023/06/09 12:10:16;;;;;;;7.68;3.10;;;30.10;99.90;;;;;;4974662;28;20427;-80
2023/06/09 12:12:48;;;;;;;7.60;3.50;;;29.80;99.90;;;;;;4974083;28;20408;-80
2023/06/09 12:15:16;;;;;;;8.00;3.20;;;29.90;99.90;;;;;;4974669;28;20513;-80
2023/06/09 12:17:42;;;;;;;7.30;3.30;;;29.70;99.90;;;;;;4973878;28;20396;-80
2023/06/09 12:20:34;;;;;;;7.32;3.00;;;29.90;99.90;;;;;;4974919;28;20889;-80
2023/06/09 12:23:07;;;;;;;8.68;3.95;;;29.80;99.90;;;;;;4974025;28;20424;-80
2023/06/09 12:25:44;;;;;;;8.05;3.30;;;29.70;99.90;;;;;;4974407;28;20683;-80
2023/06/09 12:28:23;;;;;;;7.00;2.92;;;29.60;99.90;;;;;;4974049;28;20405;-80
2023/06/09 12:30:50;;;;;;;6.78;2.80;;;29.40;99.90;;;;;;4974779;28;20515;-80
2023/06/09 12:33:19;;;;;;;6.90;2.80;;;29.40;99.90;;;;;;4974576;28;20924;-80
2023/06/09 12:36:02;;;;;;;7.30;3.25;;;29.60;99.90;;;;;;4973350;28;20474;-80
2023/06/09 12:38:28;;;;;;;7.20;2.70;;;29.80;99.90;;;;;;4972470;28;20444;-80
2023/06/09 12:40:56;;;;;;;7.53;2.77;;;29.50;99.90;;;;;;4973955;28;20428;-80
2023/06/09 12:43:24;;;;;;;7.50;3.10;;;29.60;99.90;;;;;;4973961;28;20591;-80
2023/06/09 12:45:53;;;;;;;7.30;2.83;;;29.50;99.90;;;;;;4974291;28;20555;-80
2023/06/09 12:48:19;;;;;;;7.25;3.03;;;29.80;99.90;;;;;;4975133;28;20391;-80
2023/06/09 12:50:45;;;;;;;6.73;3.00;;;29.90;99.90;;;;;;4974332;28;20423;-80
2023/06/09 12:53:12;;;;;;;6.80;2.70;;;29.80;99.90;;;;;;4973958;28;20388;-80
2023/06/09 12:55:39;;;;;;;7.68;3.10;;;30.00;99.90;;;;;;4973621;28;20407;-80
2023/06/09 12:58:06;;;;;;;6.88;2.85;;;30.50;99.90;;;;;;4974453;28;20451;-80
2023/06/09 13:00:32;;;;;;;8.03;3.47;;;30.40;99.90;;;;;;4972685;28;20417;-80
2023/06/09 13:02:59;;;;;;;7.55;3.47;;;30.10;99.90;;;;;;4973610;28;20764;-80
2023/06/09 13:05:30;;;;;;;7.28;3.10;;;29.80;99.90;;;;;;4972432;28;20486;-80
2023/06/09 13:08:00;;;;;;;7.20;3.30;;;29.60;99.90;;;;;;4974006;28;20396;-80
2023/06/09 13:10:26;;;;;;;7.43;2.92;;;30.10;99.90;;;;;;4973821;28;20440;-80
2023/06/09 13:12:52;;;;;;;7.80;3.15;;;30.10;99.90;;;;;;4974021;28;20435;-80
2023/06/09 13:15:20;;;;;;;7.10;2.90;;;29.80;99.90;;;;;;4973771;28;20404;-80
2023/06/09 13:17:46;;;;;;;7.13;3.00;;;29.90;99.90;;;;;;4973621;28;20396;-80
2023/06/09 13:20:12;;;;;;;7.20;2.50;;;29.80;99.90;;;;;;4973249;28;20395;-80
2023/06/09 13:22:38;;;;;;;7.10;2.67;;;29.80;99.90;;;;;;4973334;28;20392;-80
2023/06/09 13:25:05;;;;;;;7.30;2.90;;;29.80;99.90;;;;;;4992505;28;20421;-80